Terminal Aerodrome Forecast
Issued by NWS Honolulu, HI

Home | Current Version | Previous Version | Text Only | Print | Product List | Glossary On
Versions: 1 2 3 4 5 6 7 8 9 10 11 12 13 14 15 16 17 18 19 20 21 22 23 24 25 26 27 28 29 30 31 32 33 34 35 36 37 38 39 40 41 42 43 44 45 46 47 48 49
548
FTPA31 PHFO 042336
TAFHNL
TAF
PHNL 042336Z 0500/0606 17010KT P6SM VCSH SCT020 BKN050 OVC150
      TEMPO 0500/0504 4SM SHRA BKN020
     FM050400 VRB05KT P6SM VCSH SCT020 BKN050 BKN150
     FM051000 VRB04KT P6SM FEW020 SCT050
     FM052000 17010KT P6SM FEW020 SCT050=

USA.gov is the U.S. government's official web portal to all federal, state and local government web resources and services.